createdAt,value
2022-12-23T00:00:00.441Z,1.1
2022-12-23T00:01:00.459Z,1.1
2022-12-23T00:02:00.667Z,1.1
2022-12-23T00:03:00.628Z,1.1
2022-12-23T00:04:00.549Z,1.1
2022-12-23T00:05:00.444Z,1.1
2022-12-23T00:06:00.464Z,1.1
2022-12-23T00:07:00.475Z,1.1
2022-12-23T00:08:00.444Z,1.1
2022-12-23T00:09:00.475Z,1.1
2022-12-23T00:10:00.474Z,1.1
2022-12-23T00:11:00.474Z,1.1
2022-12-23T00:12:00.477Z,1.1
2022-12-23T00:13:00.462Z,1.1
2022-12-23T00:14:00.477Z,1.1
2022-12-23T00:15:00.471Z,1.1
2022-12-23T00:16:00.554Z,1.1
2022-12-23T00:17:00.516Z,1.1
2022-12-23T00:18:00.477Z,1.1
2022-12-23T00:19:00.477Z,1.1
2022-12-23T00:20:00.474Z,1.1
2022-12-23T00:21:06.660Z,1.1
2022-12-23T00:22:00.487Z,1.1
2022-12-23T00:23:00.502Z,1.1
2022-12-23T00:24:00.497Z,1.1
2022-12-23T00:25:00.460Z,1.1
2022-12-23T00:26:00.478Z,1.1
2022-12-23T00:27:00.466Z,1.1
2022-12-23T00:28:00.466Z,1.1
2022-12-23T00:29:00.540Z,1.1
2022-12-23T00:30:00.477Z,1.1
2022-12-23T00:31:00.486Z,1.1
2022-12-23T00:32:00.609Z,1.1
2022-12-23T00:33:00.483Z,1.1
2022-12-23T00:34:00.489Z,1.1
2022-12-23T00:35:00.483Z,1.1
2022-12-23T00:36:00.545Z,1.1
2022-12-23T00:37:00.504Z,1.1
2022-12-23T00:38:00.537Z,1.1
2022-12-23T00:39:00.522Z,1.1
2022-12-23T00:40:06.255Z,1.1
2022-12-23T00:41:00.493Z,1.1
2022-12-23T00:42:00.501Z,1.1
2022-12-23T00:43:00.489Z,1.1
2022-12-23T00:44:00.507Z,1.1
2022-12-23T00:45:00.493Z,1.1
2022-12-23T00:46:00.538Z,1.1
2022-12-23T00:47:00.502Z,1.1
2022-12-23T00:48:00.485Z,1.1
2022-12-23T00:49:00.494Z,1.1
2022-12-23T00:50:00.496Z,1.1
2022-12-23T00:51:00.508Z,1.1
2022-12-23T00:52:00.534Z,1.1
2022-12-23T00:53:00.493Z,1.1
2022-12-23T00:54:00.513Z,1.1
2022-12-23T00:55:00.565Z,1.1
2022-12-23T00:56:00.498Z,1.1
2022-12-23T00:57:00.540Z,1.1
2022-12-23T00:58:00.494Z,1.1
2022-12-23T00:59:00.493Z,1.1
2022-12-23T01:00:00.510Z,1.1
2022-12-23T01:01:00.620Z,1.1
2022-12-23T01:02:00.712Z,1.1
2022-12-23T01:03:00.673Z,1.1
2022-12-23T01:04:00.534Z,1.1
2022-12-23T01:05:00.539Z,1.1
2022-12-23T01:06:00.514Z,1.1
2022-12-23T01:07:00.523Z,1.1
2022-12-23T01:08:00.509Z,1.1
2022-12-23T01:09:00.523Z,1.1
2022-12-23T01:10:00.528Z,1.1
2022-12-23T01:11:00.522Z,1.1
2022-12-23T01:12:00.526Z,1.1
2022-12-23T01:13:00.515Z,1.1
2022-12-23T01:14:00.555Z,1.1
2022-12-23T01:15:00.544Z,1.1
2022-12-23T01:16:00.525Z,1.1
2022-12-23T01:17:00.596Z,1.1
2022-12-23T01:18:00.527Z,1.1
2022-12-23T01:19:00.556Z,1.1
2022-12-23T01:20:00.534Z,1.1
2022-12-23T01:21:00.537Z,1.1
2022-12-23T01:22:00.517Z,1.1
2022-12-23T01:23:00.549Z,1.1
2022-12-23T01:24:00.539Z,1.1
2022-12-23T01:25:00.534Z,1.1
2022-12-23T01:26:00.523Z,1.1
2022-12-23T01:27:00.547Z,1.1
2022-12-23T01:28:00.539Z,1.1
2022-12-23T01:29:00.568Z,1.1
2022-12-23T01:30:00.557Z,1.1
2022-12-23T01:31:00.531Z,1.1
2022-12-23T01:32:00.614Z,1.1
2022-12-23T01:33:00.543Z,1.1
2022-12-23T01:34:00.555Z,1.1
2022-12-23T01:35:00.575Z,1.1
2022-12-23T01:36:00.578Z,1.1
2022-12-23T01:37:00.532Z,1.1
2022-12-23T01:38:00.533Z,1.1
2022-12-23T01:39:00.555Z,1.1
2022-12-23T01:40:00.559Z,1.1
2022-12-23T01:41:00.550Z,1.1
2022-12-23T01:42:00.551Z,1.1
2022-12-23T01:43:00.539Z,1.1
2022-12-23T01:44:00.564Z,1.1
2022-12-23T01:45:00.547Z,1.1
2022-12-23T01:46:00.608Z,1.1
2022-12-23T01:47:00.560Z,1.1
2022-12-23T01:48:00.567Z,1.1
2022-12-23T01:49:00.565Z,1.1
2022-12-23T01:50:00.546Z,1.1
2022-12-23T01:51:00.574Z,1.1
2022-12-23T01:52:00.566Z,1.1
2022-12-23T01:53:06.516Z,1.1
2022-12-23T01:54:00.569Z,1.1
2022-12-23T01:55:00.588Z,1.1
2022-12-23T01:56:00.587Z,1.1
2022-12-23T01:57:00.589Z,1.1
2022-12-23T01:58:00.560Z,1.1
2022-12-23T01:59:00.597Z,1.1
2022-12-23T02:00:00.561Z,1.1
2022-12-23T02:01:00.683Z,1.1
2022-12-23T02:02:00.841Z,1.1
2022-12-23T02:03:00.682Z,1.1
2022-12-23T02:04:00.592Z,1.1
2022-12-23T02:05:00.592Z,1.1
2022-12-23T02:06:00.601Z,1.1
2022-12-23T02:07:00.585Z,1.1
2022-12-23T02:08:00.619Z,1.1
2022-12-23T02:09:00.615Z,1.1
2022-12-23T02:10:00.576Z,1.1
2022-12-23T02:11:00.597Z,1.1
2022-12-23T02:12:00.630Z,1.1
2022-12-23T02:13:00.641Z,1.1
2022-12-23T02:14:00.589Z,1.1
2022-12-23T02:15:00.606Z,1.1
2022-12-23T02:16:00.576Z,1.1
2022-12-23T02:17:00.642Z,1.1
2022-12-23T02:18:00.584Z,1.1
2022-12-23T02:19:00.607Z,1.1
2022-12-23T02:20:00.591Z,1.1
2022-12-23T02:21:00.607Z,1.1
2022-12-23T02:22:00.608Z,1.1
2022-12-23T02:23:00.584Z,1.1
2022-12-23T02:24:00.604Z,1.1
2022-12-23T02:25:00.628Z,1.1
2022-12-23T02:26:01.665Z,1.1
2022-12-23T02:27:00.605Z,1.1
2022-12-23T02:28:00.587Z,1.1
2022-12-23T02:29:00.619Z,1.1
2022-12-23T02:30:00.591Z,1.1
2022-12-23T02:31:00.677Z,1.1
2022-12-23T02:32:00.636Z,1.1
2022-12-23T02:33:00.608Z,1.1
2022-12-23T02:34:00.590Z,1.1
2022-12-23T02:35:00.607Z,1.1
2022-12-23T02:36:00.594Z,1.1
2022-12-23T02:37:00.614Z,1.1
2022-12-23T02:38:00.637Z,1.1
2022-12-23T02:39:00.626Z,1.1
2022-12-23T02:40:00.601Z,1.1
2022-12-23T02:41:00.596Z,1.1
2022-12-23T02:42:00.624Z,1.1
2022-12-23T02:43:00.617Z,1.1
2022-12-23T02:44:00.617Z,1.1
2022-12-23T02:45:00.604Z,1.1
2022-12-23T02:46:00.648Z,1.1
2022-12-23T02:47:00.636Z,1.1
2022-12-23T02:48:00.642Z,1.1
2022-12-23T02:49:00.689Z,1.1
2022-12-23T02:50:00.611Z,1.1
2022-12-23T02:51:00.617Z,1.1
2022-12-23T02:52:00.628Z,1.1
2022-12-23T02:53:00.619Z,1.1
2022-12-23T02:54:00.672Z,1.1
2022-12-23T02:55:00.630Z,1.1
2022-12-23T02:56:00.639Z,1.1
2022-12-23T02:57:00.648Z,1.1
2022-12-23T02:58:00.632Z,1.1
2022-12-23T02:59:00.635Z,1.1
2022-12-23T03:00:00.639Z,1.1
2022-12-23T03:01:01.385Z,1.1
2022-12-23T03:02:01.496Z,1.1
2022-12-23T03:03:01.441Z,1.1
2022-12-23T03:04:01.463Z,1.1
2022-12-23T03:05:01.453Z,1.1
2022-12-23T03:06:01.387Z,1.1
2022-12-23T03:07:07.143Z,1.1
2022-12-23T03:08:00.345Z,1.1
2022-12-23T03:09:00.351Z,1.1
2022-12-23T03:10:00.399Z,1.1
2022-12-23T03:11:00.336Z,1.1
2022-12-23T03:12:00.341Z,1.1
2022-12-23T03:13:00.368Z,1.1
2022-12-23T03:14:00.335Z,1.1
2022-12-23T03:15:00.335Z,1.1
2022-12-23T03:16:00.462Z,1.1
2022-12-23T03:17:00.375Z,1.1
2022-12-23T03:18:00.342Z,1.1
2022-12-23T03:19:00.353Z,1.1
2022-12-23T03:20:00.429Z,1.1
2022-12-23T03:21:00.362Z,1.1
2022-12-23T03:22:00.356Z,1.1
2022-12-23T03:23:00.357Z,1.1
2022-12-23T03:24:00.367Z,1.1
2022-12-23T03:25:00.342Z,1.1
2022-12-23T03:26:00.372Z,1.1
2022-12-23T03:27:00.380Z,1.1
2022-12-23T03:28:00.368Z,1.1
2022-12-23T03:29:00.343Z,1.1
2022-12-23T03:30:00.392Z,1.1
2022-12-23T03:31:00.437Z,1.1
2022-12-23T03:32:00.382Z,1.1
2022-12-23T03:33:00.377Z,1.1
2022-12-23T03:34:00.371Z,1.1
2022-12-23T03:35:00.393Z,1.1
2022-12-23T03:36:00.375Z,1.1
2022-12-23T03:37:00.364Z,1.1
2022-12-23T03:38:00.383Z,1.1
2022-12-23T03:39:00.386Z,1.1
2022-12-23T03:40:00.380Z,1.1
2022-12-23T03:41:00.379Z,1.1
2022-12-23T03:42:00.357Z,1.1
2022-12-23T03:43:00.372Z,1.1
2022-12-23T03:44:00.378Z,1.1
2022-12-23T03:45:37.695Z,1.1
2022-12-23T03:46:00.411Z,1.1
2022-12-23T03:47:00.373Z,1.1
2022-12-23T03:48:00.390Z,1.1
2022-12-23T03:49:00.366Z,1.1
2022-12-23T03:50:00.381Z,1.1
2022-12-23T03:51:00.410Z,1.1
2022-12-23T03:52:00.387Z,1.1
2022-12-23T03:53:00.389Z,1.1
2022-12-23T03:54:00.407Z,1.1
2022-12-23T03:55:00.370Z,1.1
2022-12-23T03:56:00.395Z,1.1
2022-12-23T03:57:00.382Z,1.1
2022-12-23T03:58:00.394Z,1.1
2022-12-23T03:59:00.411Z,1.1
2022-12-23T04:00:00.442Z,1.1
2022-12-23T04:01:00.411Z,1.1
2022-12-23T04:02:00.539Z,1.1
2022-12-23T04:03:00.555Z,1.1
2022-12-23T04:04:00.503Z,1.1
2022-12-23T04:05:00.398Z,1.1
2022-12-23T04:06:00.418Z,1.1
2022-12-23T04:07:00.391Z,1.1
2022-12-23T04:08:00.397Z,1.1
2022-12-23T04:09:00.416Z,1.1
2022-12-23T04:10:00.407Z,1.1
2022-12-23T04:11:00.418Z,1.1
2022-12-23T04:12:00.405Z,1.1
2022-12-23T04:13:00.406Z,1.1
2022-12-23T04:14:00.390Z,1.1
2022-12-23T04:15:00.434Z,1.1
2022-12-23T04:16:00.514Z,1.1
2022-12-23T04:17:00.419Z,1.1
2022-12-23T04:18:00.390Z,1.1
2022-12-23T04:19:00.397Z,1.1
2022-12-23T04:20:00.507Z,1.1
2022-12-23T04:21:00.419Z,1.1
2022-12-23T04:22:00.410Z,1.1
2022-12-23T04:23:00.407Z,1.1
2022-12-23T04:24:00.439Z,1.1
2022-12-23T04:25:00.453Z,1.1
2022-12-23T04:26:00.420Z,1.1
2022-12-23T04:27:00.408Z,1.1
2022-12-23T04:28:00.427Z,1.1
2022-12-23T04:29:00.416Z,1.1
2022-12-23T04:30:00.501Z,1.1
2022-12-23T04:31:00.458Z,1.1
2022-12-23T04:32:00.444Z,1.1
2022-12-23T04:33:00.441Z,1.1
2022-12-23T04:34:00.441Z,1.1
2022-12-23T04:35:00.425Z,1.1
2022-12-23T04:36:00.451Z,1.1
2022-12-23T04:37:00.421Z,1.1
2022-12-23T04:38:00.443Z,1.1
2022-12-23T04:39:00.444Z,1.1
2022-12-23T04:40:00.424Z,1.1
2022-12-23T04:41:00.436Z,1.1
2022-12-23T04:42:00.437Z,1.1
2022-12-23T04:43:00.473Z,1.1
2022-12-23T04:44:00.511Z,1.1
2022-12-23T04:45:00.452Z,1.1
2022-12-23T04:46:00.423Z,1.1
2022-12-23T04:47:00.507Z,1.1
2022-12-23T04:48:00.458Z,1.1
2022-12-23T04:49:00.461Z,1.1
2022-12-23T04:50:00.441Z,1.1
2022-12-23T04:51:00.428Z,1.1
2022-12-23T04:52:00.432Z,1.1
2022-12-23T04:53:00.458Z,1.1
2022-12-23T04:54:00.439Z,1.1
2022-12-23T04:55:00.429Z,1.1
2022-12-23T04:56:00.439Z,1.1
2022-12-23T04:57:00.428Z,1.1
2022-12-23T04:58:00.454Z,1.1
2022-12-23T04:59:00.434Z,1.1
2022-12-23T05:00:00.445Z,1.1
2022-12-23T05:01:00.553Z,1.1
2022-12-23T05:02:00.728Z,1.1
2022-12-23T05:03:00.668Z,1.1
2022-12-23T05:04:00.485Z,1.1
2022-12-23T05:05:00.455Z,1.1
2022-12-23T05:06:00.538Z,1.1
2022-12-23T05:07:00.477Z,1.1
2022-12-23T05:08:00.467Z,1.1
2022-12-23T05:09:00.475Z,1.1
2022-12-23T05:10:00.477Z,1.1
2022-12-23T05:11:00.474Z,1.1
2022-12-23T05:12:00.483Z,1.1
2022-12-23T05:13:00.499Z,1.1
2022-12-23T05:14:00.469Z,1.1
2022-12-23T05:15:00.482Z,1.1
2022-12-23T05:16:00.514Z,1.1
2022-12-23T05:17:06.971Z,1.1
2022-12-23T05:18:00.473Z,1.1
2022-12-23T05:19:00.510Z,1.1
2022-12-23T05:20:00.462Z,1.1
2022-12-23T05:21:00.466Z,1.1
2022-12-23T05:22:00.472Z,1.1
2022-12-23T05:23:00.515Z,1.1
2022-12-23T05:24:00.511Z,1.1
2022-12-23T05:25:00.477Z,1.1
2022-12-23T05:26:00.481Z,1.1
2022-12-23T05:27:00.792Z,1.1
2022-12-23T05:28:00.499Z,1.1
2022-12-23T05:29:00.484Z,1.1
2022-12-23T05:30:00.495Z,1.1
2022-12-23T05:31:00.523Z,1.1
2022-12-23T05:32:00.515Z,1.1
2022-12-23T05:33:00.602Z,1.1
2022-12-23T05:34:06.110Z,1.1
2022-12-23T05:35:00.482Z,1.1
2022-12-23T05:36:00.471Z,1.1
2022-12-23T05:37:00.495Z,1.1
2022-12-23T05:38:00.518Z,1.1
2022-12-23T05:39:00.507Z,1.1
2022-12-23T05:40:00.487Z,1.1
2022-12-23T05:41:00.482Z,1.1
2022-12-23T05:42:00.514Z,1.1
2022-12-23T05:43:00.539Z,1.1
2022-12-23T05:44:00.497Z,1.1
2022-12-23T05:45:00.495Z,1.1
2022-12-23T05:46:00.574Z,1.1
2022-12-23T05:47:00.505Z,1.1
2022-12-23T05:48:00.510Z,1.1
2022-12-23T05:49:00.497Z,1.1
2022-12-23T05:50:00.543Z,1.1
2022-12-23T05:51:00.494Z,1.1
2022-12-23T05:52:00.490Z,1.1
2022-12-23T05:53:00.527Z,1.1
2022-12-23T05:54:00.515Z,1.1
2022-12-23T05:55:00.510Z,1.1
2022-12-23T05:56:00.509Z,1.1
2022-12-23T05:57:00.495Z,1.1
2022-12-23T05:58:00.519Z,1.1
2022-12-23T05:59:00.500Z,1.1
2022-12-23T06:00:00.500Z,1.1
2022-12-23T06:01:00.532Z,1.1
2022-12-23T06:02:00.721Z,1.1
2022-12-23T06:03:00.722Z,1.1
2022-12-23T06:04:00.630Z,1.1
2022-12-23T06:05:00.577Z,1.1
2022-12-23T06:06:00.523Z,1.1
2022-12-23T06:07:00.506Z,1.1
2022-12-23T06:08:00.528Z,1.1
2022-12-23T06:09:00.638Z,1.1
2022-12-23T06:10:00.505Z,1.1
2022-12-23T06:11:00.532Z,1.1
2022-12-23T06:12:00.508Z,1.1
2022-12-23T06:13:00.541Z,1.1
2022-12-23T06:14:00.543Z,1.1
2022-12-23T06:15:00.516Z,1.1
2022-12-23T06:16:00.548Z,1.1
2022-12-23T06:17:00.611Z,1.1
2022-12-23T06:18:00.556Z,1.1
2022-12-23T06:19:00.534Z,1.1
2022-12-23T06:20:00.520Z,1.1
2022-12-23T06:21:00.543Z,1.1
2022-12-23T06:22:00.523Z,1.1
2022-12-23T06:23:00.519Z,1.1
2022-12-23T06:24:00.546Z,1.1
2022-12-23T06:25:00.530Z,1.1
2022-12-23T06:26:00.542Z,1.1
2022-12-23T06:27:00.545Z,1.1
2022-12-23T06:28:00.525Z,1.1
2022-12-23T06:29:00.552Z,1.1
2022-12-23T06:30:00.573Z,1.1
2022-12-23T06:31:00.558Z,1.1
2022-12-23T06:32:00.605Z,1.1
2022-12-23T06:33:00.549Z,1.1
2022-12-23T06:34:00.591Z,1.1
2022-12-23T06:35:00.541Z,1.1
2022-12-23T06:36:00.553Z,1.1
2022-12-23T06:37:00.542Z,1.1
2022-12-23T06:38:00.536Z,1.1
2022-12-23T06:39:00.555Z,1.1
2022-12-23T06:40:00.553Z,1.1
2022-12-23T06:41:00.557Z,1.1
2022-12-23T06:42:00.553Z,1.1
2022-12-23T06:43:00.585Z,1.1
2022-12-23T06:44:00.594Z,1.1
2022-12-23T06:45:00.539Z,1.3
2022-12-23T06:46:00.607Z,1.6
2022-12-23T06:47:00.551Z,2
2022-12-23T06:48:00.568Z,2.5
2022-12-23T06:49:00.572Z,2.9
2022-12-23T06:50:00.545Z,3.3
2022-12-23T06:51:00.570Z,3.9
2022-12-23T06:52:00.553Z,4.4
2022-12-23T06:53:00.553Z,4.8
2022-12-23T06:54:00.566Z,5.5
2022-12-23T06:55:00.554Z,7
2022-12-23T06:56:00.569Z,8.4
2022-12-23T06:57:00.575Z,8.9
2022-12-23T06:58:00.580Z,10.5
2022-12-23T06:59:00.627Z,11.6
2022-12-23T07:00:00.605Z,12.2
2022-12-23T07:01:00.572Z,13.9
2022-12-23T07:02:00.817Z,13.9
2022-12-23T07:03:00.782Z,14.6
2022-12-23T07:04:00.603Z,17.2
2022-12-23T07:05:00.586Z,19.4
2022-12-23T07:06:00.580Z,22.1
2022-12-23T07:07:00.586Z,24.4
2022-12-23T07:08:00.600Z,24.4
2022-12-23T07:22:00.780Z,54.9
2022-12-23T07:23:00.735Z,56.3
2022-12-23T07:24:00.675Z,62.7
2022-12-23T07:25:00.711Z,69
2022-12-23T07:26:00.737Z,75
2022-12-23T07:27:00.692Z,77.7
2022-12-23T07:28:00.695Z,86.5
2022-12-23T07:29:00.731Z,101.1
2022-12-23T07:30:00.776Z,130
2022-12-23T07:31:00.965Z,157.4
2022-12-23T07:32:00.952Z,190.5
2022-12-23T07:33:00.783Z,195.2
2022-12-23T07:34:00.745Z,188.3
2022-12-23T07:35:00.732Z,167.1
2022-12-23T07:36:00.780Z,139.6
2022-12-23T07:37:00.716Z,119.5
2022-12-23T07:38:01.635Z,112.6
2022-12-23T07:39:01.568Z,104.8
2022-12-23T07:40:06.621Z,103.5
2022-12-23T07:41:00.707Z,93
2022-12-23T07:42:33.815Z,108.6
2022-12-23T07:43:00.700Z,128.4
2022-12-23T07:44:00.768Z,143
2022-12-23T07:45:00.704Z,153.6
2022-12-23T07:46:01.314Z,157.4
2022-12-23T07:47:00.712Z,157.4
2022-12-23T07:48:00.695Z,157.4
2022-12-23T07:49:00.623Z,159.3
2022-12-23T07:50:00.640Z,177.3
2022-12-23T07:51:00.766Z,188.3
2022-12-23T07:52:00.702Z,209.7
2022-12-23T07:53:00.693Z,233.5
2022-12-23T07:54:00.676Z,244.9
2022-12-23T07:55:00.625Z,217.3
2022-12-23T07:56:00.632Z,197.5
2022-12-23T07:57:00.703Z,207.2
2022-12-23T07:58:00.634Z,202.3
2022-12-23T07:59:00.646Z,207.2
2022-12-23T08:00:00.660Z,244.9
2022-12-23T08:01:00.747Z,222.6
2022-12-23T08:02:00.809Z,212.2
2022-12-23T08:03:00.913Z,247.9
2022-12-23T08:04:00.656Z,269.5
2022-12-23T08:05:00.749Z,244.9
2022-12-23T08:06:00.657Z,228
2022-12-23T08:07:00.657Z,217.3
2022-12-23T08:08:00.650Z,228
2022-12-23T08:09:00.665Z,233.5
2022-12-23T08:10:00.677Z,228
2022-12-23T08:11:00.652Z,244.9
2022-12-23T08:12:00.700Z,236.3
2022-12-23T08:13:00.665Z,256.9
2022-12-23T08:14:00.674Z,250.9
2022-12-23T08:15:00.645Z,247.9
2022-12-23T08:16:00.661Z,244.9
2022-12-23T08:17:00.791Z,236.3
2022-12-23T08:18:00.651Z,253.9
2022-12-23T08:19:00.665Z,326.4
2022-12-23T08:20:00.658Z,311.1
2022-12-23T08:21:00.670Z,326.4
2022-12-23T08:22:00.667Z,395.2
2022-12-23T08:23:00.663Z,461.7
2022-12-23T08:24:00.686Z,461.7
2022-12-23T08:25:00.683Z,456.2
2022-12-23T08:26:00.738Z,478.5
2022-12-23T08:27:00.677Z,478.5
2022-12-23T08:28:00.675Z,456.2
2022-12-23T08:29:00.658Z,456.2
2022-12-23T08:30:00.677Z,490.1
2022-12-23T08:31:00.765Z,456.2
2022-12-23T08:32:00.674Z,359.1
2022-12-23T08:33:00.687Z,314.9
2022-12-23T08:34:00.685Z,326.4
2022-12-23T08:35:00.682Z,326.4
2022-12-23T08:36:00.700Z,334.3
2022-12-23T08:37:00.669Z,334.3
2022-12-23T08:38:00.675Z,342.4
2022-12-23T08:39:00.666Z,342.4
2022-12-23T08:40:00.697Z,342.4
2022-12-23T08:41:00.723Z,350.6
2022-12-23T08:42:00.681Z,414.5
2022-12-23T08:43:00.675Z,461.7
2022-12-23T08:44:00.716Z,424.6
2022-12-23T08:45:00.678Z,354.9
2022-12-23T08:46:00.720Z,311.1
2022-12-23T08:47:00.709Z,307.4
2022-12-23T08:48:00.683Z,276.1
2022-12-23T08:49:00.703Z,276.1
2022-12-23T08:50:00.743Z,293.1
2022-12-23T08:51:00.707Z,338.3
2022-12-23T08:52:00.702Z,354.9
2022-12-23T08:53:00.732Z,381.3
2022-12-23T08:54:01.583Z,376.7
2022-12-23T08:55:00.702Z,424.6
2022-12-23T08:56:00.722Z,440.1
2022-12-23T08:57:00.699Z,434.9
2022-12-23T08:58:00.691Z,478.5
2022-12-23T08:59:00.698Z,502
2022-12-23T09:00:00.860Z,545.8
2022-12-23T09:01:00.813Z,545.8
2022-12-23T09:02:00.874Z,526.6
2022-12-23T09:03:00.878Z,526.6
2022-12-23T09:04:00.744Z,526.6
2022-12-23T09:05:00.751Z,467.2
2022-12-23T09:06:00.731Z,484.3
2022-12-23T09:07:00.725Z,559
2022-12-23T09:08:00.728Z,579.4
2022-12-23T09:09:00.726Z,539.3
2022-12-23T09:10:00.736Z,539.3
2022-12-23T09:11:00.746Z,622.5
2022-12-23T09:12:00.711Z,727.2
2022-12-23T09:13:00.746Z,668.8
2022-12-23T09:14:00.727Z,622.5
2022-12-23T09:15:00.730Z,607.8
2022-12-23T09:16:00.767Z,607.8
2022-12-23T09:17:00.736Z,637.6
2022-12-23T09:18:00.716Z,645.3
2022-12-23T09:19:00.749Z,593.4
2022-12-23T09:20:00.747Z,579.4
2022-12-23T09:21:00.779Z,579.4
2022-12-23T09:22:00.734Z,744.8
2022-12-23T09:23:00.751Z,781.4
2022-12-23T09:24:00.740Z,800.3
2022-12-23T09:25:05.010Z,859.8
2022-12-23T09:26:00.764Z,980.7
2022-12-23T09:27:00.739Z,980.7
2022-12-23T09:28:00.728Z,969
2022-12-23T09:29:01.033Z,934.9
2022-12-23T09:30:00.755Z,901.9
2022-12-23T09:31:00.760Z,946.1
2022-12-23T09:32:00.785Z,1016.5
2022-12-23T09:33:00.746Z,1066.3
2022-12-23T09:34:00.763Z,1118.6
2022-12-23T09:35:00.765Z,1187.5
2022-12-23T09:36:00.753Z,1201.7
2022-12-23T09:37:00.740Z,1275.8
2022-12-23T09:38:00.770Z,1306.7
2022-12-23T09:39:00.793Z,1028.7
2022-12-23T09:40:00.745Z,859.8
2022-12-23T09:41:00.748Z,809.9
2022-12-23T09:42:00.759Z,923.7
2022-12-23T09:43:00.751Z,946.1
2022-12-23T09:44:00.762Z,1092.1
2022-12-23T09:45:00.756Z,1041.1
2022-12-23T09:46:00.782Z,1053.6
2022-12-23T09:47:00.869Z,1145.6
2022-12-23T09:48:00.743Z,1016.5
2022-12-23T09:49:00.766Z,980.7
2022-12-23T09:50:00.765Z,992.5
2022-12-23T09:51:00.765Z,946.1
2022-12-23T09:52:00.748Z,957.5
2022-12-23T09:53:00.752Z,946.1
2022-12-23T09:54:00.793Z,891.2
2022-12-23T09:55:00.752Z,849.6
2022-12-23T09:56:00.774Z,790.8
2022-12-23T09:57:00.764Z,901.9
2022-12-23T09:58:00.752Z,969
2022-12-23T09:59:00.778Z,891.2
2022-12-23T10:00:00.831Z,829.5
2022-12-23T10:01:00.788Z,676.9
2022-12-23T10:02:00.929Z,545.8
2022-12-23T10:03:01.018Z,600.6
2022-12-23T10:04:00.894Z,660.9
2022-12-23T10:05:00.764Z,736
2022-12-23T10:06:00.788Z,819.6
2022-12-23T10:07:02.978Z,819.6
2022-12-23T10:08:00.780Z,839.5
2022-12-23T10:09:00.786Z,781.4
2022-12-23T10:10:00.810Z,809.9
2022-12-23T10:11:00.793Z,819.6
2022-12-23T10:12:00.775Z,859.8
2022-12-23T10:13:00.773Z,980.7
2022-12-23T10:14:00.793Z,1028.7
2022-12-23T10:15:00.791Z,1028.7
2022-12-23T10:16:00.829Z,957.5
2022-12-23T10:17:00.797Z,969
2022-12-23T10:18:00.786Z,923.7
2022-12-23T10:19:00.803Z,859.8
2022-12-23T10:20:00.813Z,685.1
2022-12-23T10:21:00.821Z,653
2022-12-23T10:22:00.788Z,685.1
2022-12-23T10:23:00.791Z,762.9
2022-12-23T10:24:00.795Z,790.8
2022-12-23T10:25:00.802Z,859.8
2022-12-23T10:26:00.830Z,839.5
2022-12-23T10:27:00.797Z,870.2
2022-12-23T10:28:00.799Z,992.5
2022-12-23T10:29:00.815Z,934.9
2022-12-23T10:30:09.660Z,829.5
2022-12-23T10:32:00.899Z,819.6
2022-12-23T10:33:00.791Z,718.6
2022-12-23T10:34:00.806Z,579.4
2022-12-23T10:35:00.829Z,593.4
2022-12-23T10:36:00.962Z,710.1
2022-12-23T10:37:00.908Z,772.1
2022-12-23T10:38:00.791Z,849.6
2022-12-23T10:39:00.821Z,849.6
2022-12-23T10:40:00.812Z,980.7
2022-12-23T10:41:06.992Z,992.5
2022-12-23T10:42:00.831Z,901.9
2022-12-23T10:43:00.808Z,829.5
2022-12-23T10:44:00.813Z,710.1
2022-12-23T10:45:00.824Z,701.6
2022-12-23T10:46:00.845Z,668.8
2022-12-23T10:47:00.912Z,637.6
2022-12-23T10:48:00.802Z,637.6
2022-12-23T10:49:00.837Z,710.1
2022-12-23T10:50:00.855Z,753.8
2022-12-23T10:51:00.838Z,829.5
2022-12-23T10:52:00.808Z,809.9
2022-12-23T10:53:00.809Z,809.9
2022-12-23T10:54:00.839Z,849.6
2022-12-23T10:55:00.864Z,891.2
2022-12-23T10:56:00.829Z,819.6
2022-12-23T10:57:00.812Z,946.1
2022-12-23T10:58:00.819Z,829.5
2022-12-23T10:59:00.823Z,923.7
2022-12-23T11:00:00.849Z,1016.5
2022-12-23T11:01:00.923Z,1041.1
2022-12-23T11:02:01.025Z,992.5
2022-12-23T11:03:00.902Z,957.5
2022-12-23T11:04:00.843Z,912.8
2022-12-23T11:05:00.845Z,849.6
2022-12-23T11:06:00.849Z,819.6
2022-12-23T11:07:41.543Z,809.9
2022-12-23T11:08:00.829Z,946.1
2022-12-23T11:09:00.854Z,1092.1
2022-12-23T11:10:00.849Z,1306.7
2022-12-23T11:11:00.847Z,1201.7
2022-12-23T11:12:00.858Z,1004.4
2022-12-23T11:13:00.830Z,891.2
2022-12-23T11:14:00.833Z,859.8
2022-12-23T11:15:00.839Z,839.5
2022-12-23T11:16:00.900Z,819.6
2022-12-23T11:17:00.847Z,829.5
2022-12-23T11:18:00.836Z,891.2
2022-12-23T11:19:00.848Z,901.9
2022-12-23T11:20:00.838Z,1004.4
2022-12-23T11:21:00.859Z,1260.7
2022-12-23T11:22:00.851Z,1159.4
2022-12-23T11:23:00.853Z,1159.4
2022-12-23T11:24:00.858Z,1187.5
2022-12-23T11:25:00.857Z,1145.6
2022-12-23T11:26:00.875Z,1291.2
2022-12-23T11:27:00.856Z,1132
2022-12-23T11:28:00.847Z,1201.7
2022-12-23T11:29:00.847Z,969
2022-12-23T11:30:00.865Z,1053.6
2022-12-23T11:31:00.869Z,946.1
2022-12-23T11:32:00.950Z,946.1
2022-12-23T11:33:00.847Z,969
2022-12-23T11:34:00.870Z,912.8
2022-12-23T11:35:00.913Z,829.5
2022-12-23T11:36:00.874Z,891.2
2022-12-23T11:37:05.490Z,901.9
2022-12-23T11:38:00.884Z,934.9
2022-12-23T11:39:00.904Z,957.5
2022-12-23T11:40:00.883Z,849.6
2022-12-23T11:41:00.889Z,839.5
2022-12-23T11:42:00.894Z,870.2
2022-12-23T11:43:00.900Z,912.8
2022-12-23T11:44:00.877Z,912.8
2022-12-23T11:45:00.865Z,829.5
2022-12-23T11:46:00.968Z,736
2022-12-23T11:47:00.877Z,829.5
2022-12-23T11:48:00.875Z,809.9
2022-12-23T11:49:00.868Z,839.5
2022-12-23T11:50:00.872Z,849.6
2022-12-23T11:51:00.901Z,923.7
2022-12-23T11:52:00.871Z,809.9
2022-12-23T11:53:00.868Z,744.8
2022-12-23T11:54:00.903Z,736
2022-12-23T11:55:00.868Z,668.8
2022-12-23T11:56:00.896Z,685.1
2022-12-23T11:57:00.974Z,630
2022-12-23T11:58:00.906Z,579.4
2022-12-23T11:59:00.880Z,645.3
2022-12-23T12:00:00.905Z,645.3
2022-12-23T12:01:00.909Z,685.1
2022-12-23T12:02:00.954Z,762.9
2022-12-23T12:03:00.964Z,772.1
2022-12-23T12:04:00.979Z,736
2022-12-23T12:05:00.894Z,676.9
2022-12-23T12:06:00.923Z,772.1
2022-12-23T12:07:00.919Z,685.1
2022-12-23T12:08:00.883Z,744.8
2022-12-23T12:09:00.904Z,772.1
2022-12-23T12:10:00.915Z,718.6
2022-12-23T12:11:00.912Z,772.1
2022-12-23T12:12:00.899Z,718.6
2022-12-23T12:13:00.907Z,718.6
2022-12-23T12:14:00.902Z,718.6
2022-12-23T12:15:00.954Z,653
2022-12-23T12:16:00.911Z,653
2022-12-23T12:17:00.941Z,668.8
2022-12-23T12:18:00.898Z,718.6
2022-12-23T12:19:00.892Z,753.8
2022-12-23T12:20:00.965Z,772.1
2022-12-23T12:21:00.938Z,718.6
2022-12-23T12:22:00.905Z,586.4
2022-12-23T12:23:00.909Z,579.4
2022-12-23T12:24:17.617Z,668.8
2022-12-23T12:25:00.919Z,718.6
2022-12-23T12:26:00.935Z,685.1
2022-12-23T12:27:00.907Z,772.1
2022-12-23T12:28:00.932Z,630
2022-12-23T12:29:00.918Z,579.4
2022-12-23T12:30:06.126Z,718.6
2022-12-23T12:31:00.963Z,645.3
2022-12-23T12:32:00.948Z,718.6
2022-12-23T12:33:00.939Z,653
2022-12-23T12:34:00.922Z,607.8
2022-12-23T12:35:00.938Z,693.3
2022-12-23T12:36:05.314Z,736
2022-12-23T12:37:01.030Z,701.6
2022-12-23T12:38:00.935Z,600.6
2022-12-23T12:39:00.934Z,693.3
2022-12-23T12:40:00.949Z,762.9
2022-12-23T12:41:00.952Z,701.6
2022-12-23T12:42:05.515Z,809.9
2022-12-23T12:43:00.928Z,718.6
2022-12-23T12:44:00.934Z,790.8
2022-12-23T12:45:00.937Z,701.6
2022-12-23T12:46:01.021Z,685.1
2022-12-23T12:47:04.143Z,718.6
2022-12-23T12:48:07.182Z,718.6
2022-12-23T12:49:00.960Z,565.7
2022-12-23T12:50:00.934Z,630
2022-12-23T12:51:00.953Z,600.6
2022-12-23T12:52:01.012Z,630
2022-12-23T12:53:00.936Z,660.9
2022-12-23T12:54:05.227Z,790.8
2022-12-23T12:55:00.939Z,744.8
2022-12-23T12:56:00.956Z,701.6
2022-12-23T12:57:00.946Z,809.9
2022-12-23T12:58:00.948Z,579.4
2022-12-23T12:59:00.954Z,593.4
2022-12-23T13:00:05.964Z,718.6
2022-12-23T13:01:01.029Z,653
2022-12-23T13:02:01.060Z,660.9
2022-12-23T13:03:00.969Z,668.8
2022-12-23T13:04:00.960Z,637.6
2022-12-23T13:05:00.958Z,753.8
2022-12-23T13:06:00.982Z,859.8
2022-12-23T13:07:00.945Z,934.9
2022-12-23T13:08:00.973Z,790.8
2022-12-23T13:09:00.965Z,790.8
2022-12-23T13:10:00.968Z,772.1
2022-12-23T13:11:00.970Z,744.8
2022-12-23T13:12:01.837Z,718.6
2022-12-23T13:13:00.984Z,790.8
2022-12-23T13:14:00.979Z,839.5
2022-12-23T13:15:00.967Z,736
2022-12-23T13:16:00.995Z,762.9
2022-12-23T13:17:01.154Z,676.9
2022-12-23T13:18:03.624Z,809.9
2022-12-23T13:19:00.949Z,762.9
2022-12-23T13:20:00.923Z,718.6
2022-12-23T13:21:00.897Z,710.1
2022-12-23T13:22:00.842Z,645.3
2022-12-23T13:23:20.878Z,539.3
2022-12-23T13:24:04.108Z,637.6
2022-12-23T13:25:00.789Z,565.7
2022-12-23T13:26:00.749Z,559
2022-12-23T13:27:00.701Z,496
2022-12-23T13:28:00.681Z,496
2022-12-23T13:29:00.661Z,385.9
2022-12-23T13:30:00.650Z,478.5
2022-12-23T13:31:00.709Z,490.1
2022-12-23T13:32:00.558Z,429.7
2022-12-23T13:33:00.559Z,419.6
2022-12-23T13:34:00.567Z,390.5
2022-12-23T13:35:00.723Z,354.9